createdAt,value
2017-10-27T00:01:16.838Z,93.80
2017-10-27T00:04:26.781Z,93.80
2017-10-27T00:07:36.828Z,94.10
2017-10-27T00:10:47.542Z,94.10
2017-10-27T00:13:57.784Z,93.80
2017-10-27T00:17:07.727Z,93.70
2017-10-27T00:20:17.852Z,93.70
2017-10-27T00:23:27.781Z,93.70
2017-10-27T00:26:37.617Z,93.90
2017-10-27T00:29:48.241Z,94.10
2017-10-27T00:32:58.473Z,94.00
2017-10-27T00:36:08.740Z,94.10
2017-10-27T00:39:18.706Z,94.10
2017-10-27T00:42:28.636Z,94.10
2017-10-27T00:45:38.921Z,94.10
2017-10-27T00:48:49.260Z,94.10
2017-10-27T00:51:59.044Z,94.30
2017-10-27T00:55:08.886Z,94.20
2017-10-27T00:58:19.207Z,94.20
2017-10-27T01:01:28.994Z,94.10
2017-10-27T01:04:39.006Z,94.20
2017-10-27T01:07:49.786Z,94.40
2017-10-27T01:10:59.964Z,94.40
2017-10-27T01:14:09.994Z,94.50
2017-10-27T01:17:20.056Z,94.50
2017-10-27T01:20:29.893Z,94.50
2017-10-27T01:23:39.849Z,94.80
2017-10-27T01:26:49.926Z,95.10
2017-10-27T01:29:59.872Z,95.70
2017-10-27T01:33:09.926Z,96.30
2017-10-27T01:36:19.850Z,96.70
2017-10-27T01:39:30.099Z,97.00
2017-10-27T01:42:39.985Z,97.20
2017-10-27T01:45:49.640Z,97.50
2017-10-27T01:48:59.724Z,97.60
2017-10-27T01:52:09.861Z,97.70
2017-10-27T01:55:19.937Z,97.70
2017-10-27T01:58:30.031Z,97.70
2017-10-27T02:01:40.292Z,98.00
2017-10-27T02:04:50.432Z,98.20
2017-10-27T02:08:00.035Z,98.40
2017-10-27T02:11:10.979Z,98.60
2017-10-27T02:14:21.394Z,98.50
2017-10-27T02:17:31.343Z,98.50
2017-10-27T02:20:41.410Z,98.80
2017-10-27T02:23:50.989Z,98.50
2017-10-27T02:27:00.863Z,98.60
2017-10-27T02:30:11.445Z,98.70
2017-10-27T02:33:21.601Z,98.70
2017-10-27T02:36:31.988Z,98.80
2017-10-27T02:39:41.549Z,98.20
2017-10-27T02:42:51.795Z,97.80
2017-10-27T02:46:01.831Z,97.90
2017-10-27T02:49:11.871Z,97.80
2017-10-27T02:52:21.864Z,98.00
2017-10-27T02:55:31.892Z,97.80
2017-10-27T02:58:41.722Z,97.90
2017-10-27T03:01:52.009Z,97.90
2017-10-27T03:05:02.010Z,97.70
2017-10-27T03:08:11.887Z,98.00
2017-10-27T03:11:23.366Z,98.10
2017-10-27T03:14:33.341Z,98.10
2017-10-27T03:17:43.555Z,98.00
2017-10-27T03:20:53.634Z,98.00
2017-10-27T03:24:03.768Z,98.00
2017-10-27T03:27:13.731Z,97.80
2017-10-27T03:30:24.557Z,98.00
2017-10-27T03:33:34.543Z,97.90
2017-10-27T03:36:44.365Z,98.00
2017-10-27T03:39:54.866Z,98.00
2017-10-27T03:43:05.703Z,97.80
2017-10-27T03:46:16.051Z,97.80
2017-10-27T03:49:25.978Z,98.40
2017-10-27T03:52:35.854Z,98.00
2017-10-27T03:55:46.211Z,98.50
2017-10-27T03:58:56.274Z,98.50
2017-10-27T04:02:06.779Z,98.50
2017-10-27T04:05:16.909Z,98.30
2017-10-27T04:08:26.801Z,98.50
2017-10-27T04:11:36.255Z,98.40
2017-10-27T04:14:46.671Z,98.60
2017-10-27T04:17:57.282Z,98.60
2017-10-27T04:21:08.006Z,98.60
2017-10-27T04:24:17.910Z,98.90
2017-10-27T04:27:27.982Z,97.90
2017-10-27T04:30:38.458Z,97.30
2017-10-27T04:33:48.480Z,97.30
2017-10-27T04:36:58.446Z,97.60
2017-10-27T04:40:09.014Z,97.90
2017-10-27T04:43:19.602Z,98.00
2017-10-27T04:46:29.666Z,97.80
2017-10-27T04:49:39.911Z,97.70
2017-10-27T04:52:49.905Z,98.00
2017-10-27T04:56:00.218Z,98.20
2017-10-27T04:59:10.842Z,98.20
2017-10-27T05:02:21.784Z,98.20
2017-10-27T05:05:31.699Z,98.20
2017-10-27T05:08:41.564Z,98.20
2017-10-27T05:11:51.531Z,98.30
2017-10-27T05:15:01.676Z,98.30
2017-10-27T05:18:17.083Z,98.10
2017-10-27T05:21:32.858Z,98.30
2017-10-27T05:24:43.348Z,98.30
2017-10-27T05:27:53.419Z,98.30
2017-10-27T05:31:03.388Z,98.40
2017-10-27T05:34:13.626Z,98.90
2017-10-27T05:37:23.764Z,98.50
2017-10-27T05:40:33.727Z,98.50
2017-10-27T05:43:44.118Z,98.70
2017-10-27T05:46:53.797Z,98.90
2017-10-27T05:50:04.018Z,98.80
2017-10-27T05:53:14.480Z,98.60
2017-10-27T05:56:24.527Z,98.70
2017-10-27T05:59:34.671Z,98.90
2017-10-27T06:02:44.552Z,99.10
2017-10-27T06:05:55.486Z,99.10
2017-10-27T06:09:05.478Z,99.10
2017-10-27T06:12:15.614Z,99.10
2017-10-27T06:15:25.674Z,99.20
2017-10-27T06:18:35.700Z,98.90
2017-10-27T06:21:45.737Z,99.10
2017-10-27T06:24:55.740Z,99.10
2017-10-27T06:28:05.868Z,99.00
2017-10-27T06:31:15.998Z,99.00
2017-10-27T06:34:25.908Z,98.90
2017-10-27T06:37:36.127Z,98.80
2017-10-27T06:40:46.187Z,98.90
2017-10-27T06:43:56.806Z,99.00
2017-10-27T06:47:06.811Z,98.90
2017-10-27T06:50:16.358Z,98.90
2017-10-27T06:53:27.009Z,99.00
2017-10-27T06:56:39.841Z,98.90
2017-10-27T06:59:50.378Z,99.10
2017-10-27T07:03:00.479Z,99.10
2017-10-27T07:06:10.546Z,98.90
2017-10-27T07:09:20.786Z,99.20
2017-10-27T07:12:31.082Z,98.80
2017-10-27T07:15:41.147Z,98.80
2017-10-27T07:18:51.122Z,98.80
2017-10-27T07:22:01.919Z,98.70
2017-10-27T07:25:11.835Z,98.70
2017-10-27T07:28:22.298Z,98.50
2017-10-27T07:31:32.949Z,98.80
2017-10-27T07:34:42.908Z,98.70
2017-10-27T07:37:52.840Z,98.90
2017-10-27T07:41:02.781Z,98.60
2017-10-27T07:44:12.803Z,98.20
2017-10-27T07:47:22.698Z,98.30
2017-10-27T07:50:32.509Z,98.50
2017-10-27T07:53:42.941Z,98.80
2017-10-27T07:56:52.693Z,98.50
2017-10-27T08:00:03.153Z,98.60
2017-10-27T08:03:12.925Z,98.30
2017-10-27T08:06:23.395Z,98.00
2017-10-27T08:09:33.406Z,98.10
2017-10-27T08:12:43.630Z,98.10
2017-10-27T08:15:53.430Z,97.60
2017-10-27T08:19:04.145Z,97.90
2017-10-27T08:22:14.094Z,97.90
2017-10-27T08:25:23.755Z,98.00
2017-10-27T08:28:33.771Z,98.00
2017-10-27T08:31:43.812Z,97.70
2017-10-27T08:34:53.885Z,97.80
2017-10-27T08:38:06.457Z,97.60
2017-10-27T08:41:18.839Z,97.30
2017-10-27T08:44:29.252Z,97.10
2017-10-27T08:47:38.831Z,97.40
2017-10-27T08:50:50.703Z,97.30
2017-10-27T08:54:01.386Z,97.20
2017-10-27T08:57:10.824Z,96.80
2017-10-27T09:00:21.479Z,97.00
2017-10-27T09:03:31.102Z,97.20
2017-10-27T09:06:41.138Z,98.10
2017-10-27T09:09:52.106Z,97.80
2017-10-27T09:13:02.427Z,98.20
2017-10-27T09:16:12.836Z,98.10
2017-10-27T09:19:23.190Z,98.40
2017-10-27T09:22:32.620Z,98.70
2017-10-27T09:25:44.361Z,98.40
2017-10-27T09:28:54.489Z,98.30
2017-10-27T09:32:04.520Z,97.30
2017-10-27T09:35:14.422Z,97.40
2017-10-27T09:38:24.844Z,97.50
2017-10-27T09:41:34.535Z,97.10
2017-10-27T09:44:45.021Z,96.80
2017-10-27T09:47:55.217Z,97.20
2017-10-27T09:51:06.194Z,96.50
2017-10-27T09:54:16.070Z,96.50
2017-10-27T09:57:25.922Z,96.90
2017-10-27T10:00:35.433Z,96.50
2017-10-27T10:03:45.162Z,96.40
2017-10-27T10:06:55.775Z,95.90
2017-10-27T10:10:06.530Z,95.80
2017-10-27T10:13:16.483Z,95.30
2017-10-27T10:16:27.334Z,95.30
2017-10-27T10:19:37.227Z,95.30
2017-10-27T10:22:47.036Z,95.00
2017-10-27T10:25:57.951Z,95.70
2017-10-27T10:29:08.085Z,95.70
2017-10-27T10:32:17.950Z,95.30
2017-10-27T10:35:27.583Z,93.70
2017-10-27T10:38:38.146Z,92.40
2017-10-27T10:41:47.596Z,92.90
2017-10-27T10:44:57.849Z,94.30
2017-10-27T10:48:07.987Z,94.50
2017-10-27T10:51:17.604Z,94.10
2017-10-27T10:54:27.368Z,94.20
2017-10-27T10:57:37.032Z,94.70
2017-10-27T11:00:47.139Z,94.50
2017-10-27T11:03:57.209Z,95.30
2017-10-27T11:07:08.136Z,96.10
2017-10-27T11:10:18.167Z,96.00
2017-10-27T11:13:28.230Z,95.00
2017-10-27T11:16:39.510Z,94.80
2017-10-27T11:19:49.600Z,94.80
2017-10-27T11:23:00.825Z,93.00
2017-10-27T11:26:11.174Z,93.00
2017-10-27T11:29:21.211Z,93.10
2017-10-27T11:32:31.140Z,92.00
2017-10-27T11:35:41.475Z,91.90
2017-10-27T11:38:51.704Z,91.20
2017-10-27T11:42:01.482Z,90.50
2017-10-27T11:45:12.038Z,91.70
2017-10-27T11:48:22.653Z,91.60
2017-10-27T11:51:33.550Z,91.80
2017-10-27T11:54:43.354Z,91.80
2017-10-27T11:57:54.194Z,91.80
2017-10-27T12:01:04.406Z,91.80
2017-10-27T12:04:14.802Z,92.10
2017-10-27T12:07:25.696Z,92.10
2017-10-27T12:10:35.655Z,92.00
2017-10-27T12:13:45.432Z,93.00
2017-10-27T12:16:55.641Z,94.40
2017-10-27T12:20:06.002Z,94.60
2017-10-27T12:23:16.395Z,94.90
2017-10-27T12:26:26.154Z,94.80
2017-10-27T12:29:36.259Z,94.90
2017-10-27T12:32:47.258Z,94.60
2017-10-27T12:35:57.639Z,94.30
2017-10-27T12:39:07.384Z,93.10
2017-10-27T12:42:17.826Z,91.60
2017-10-27T12:45:27.862Z,91.20
2017-10-27T12:48:37.932Z,90.30
2017-10-27T12:51:48.486Z,88.30
2017-10-27T12:54:58.968Z,86.40
2017-10-27T12:58:09.885Z,86.90
2017-10-27T13:01:19.467Z,86.80
2017-10-27T13:04:29.114Z,86.00
2017-10-27T13:07:39.660Z,86.60
2017-10-27T13:10:49.347Z,88.20
2017-10-27T13:13:59.350Z,88.10
2017-10-27T13:17:09.353Z,88.00
2017-10-27T13:20:19.406Z,87.70
2017-10-27T13:23:29.071Z,88.90
2017-10-27T13:26:39.833Z,90.30
2017-10-27T13:29:50.363Z,90.30
2017-10-27T13:33:01.715Z,90.60
2017-10-27T13:36:12.862Z,92.60
2017-10-27T13:39:23.066Z,92.50
2017-10-27T13:42:33.131Z,93.00
2017-10-27T13:45:42.819Z,92.40
2017-10-27T13:48:53.617Z,92.60
2017-10-27T13:52:03.097Z,92.60
2017-10-27T13:55:14.127Z,92.70
2017-10-27T13:58:24.383Z,93.10
2017-10-27T14:01:34.331Z,93.10
2017-10-27T14:04:44.508Z,92.90
2017-10-27T14:07:54.468Z,93.20
2017-10-27T14:11:04.395Z,93.20
2017-10-27T14:14:14.476Z,93.60
2017-10-27T14:17:24.847Z,93.90
2017-10-27T14:20:34.645Z,94.20
2017-10-27T14:23:45.499Z,94.00
2017-10-27T14:26:55.354Z,94.00
2017-10-27T14:30:05.856Z,94.00
2017-10-27T14:33:15.579Z,94.80
2017-10-27T14:36:25.971Z,94.80
2017-10-27T14:39:36.036Z,95.20
2017-10-27T14:42:45.846Z,95.50
2017-10-27T14:45:55.945Z,95.60
2017-10-27T14:49:05.763Z,96.00
2017-10-27T14:52:16.286Z,96.20
2017-10-27T14:55:26.185Z,96.20
2017-10-27T14:58:36.760Z,96.60
2017-10-27T15:01:46.551Z,96.70
2017-10-27T15:04:57.049Z,96.70
2017-10-27T15:08:06.919Z,96.50
2017-10-27T15:11:17.130Z,96.60
2017-10-27T15:14:28.047Z,96.70
2017-10-27T15:17:38.647Z,96.60
2017-10-27T15:20:49.382Z,96.50
2017-10-27T15:23:59.832Z,96.30
2017-10-27T15:27:09.445Z,96.50
2017-10-27T15:30:19.833Z,96.60
2017-10-27T15:33:30.100Z,96.40
2017-10-27T15:36:40.094Z,96.40
2017-10-27T15:39:50.208Z,96.20
2017-10-27T15:43:01.065Z,95.80
2017-10-27T15:46:11.542Z,95.80
2017-10-27T15:49:23.259Z,95.90
2017-10-27T15:52:33.370Z,95.90
2017-10-27T15:55:43.380Z,96.00
2017-10-27T15:58:53.502Z,96.00
2017-10-27T16:02:04.221Z,96.00
2017-10-27T16:05:14.657Z,96.00
2017-10-27T16:08:24.968Z,96.00
2017-10-27T16:11:35.427Z,96.10
2017-10-27T16:14:46.176Z,96.10
2017-10-27T16:17:56.471Z,96.20
2017-10-27T16:21:07.341Z,96.50
2017-10-27T16:24:17.583Z,96.10
2017-10-27T16:27:27.818Z,96.20
2017-10-27T16:30:38.121Z,96.30
2017-10-27T16:33:48.916Z,96.20
2017-10-27T16:36:58.709Z,96.10
2017-10-27T16:40:08.756Z,96.20
2017-10-27T16:43:18.810Z,96.10
2017-10-27T16:46:28.950Z,96.20
2017-10-27T16:49:38.930Z,96.20
2017-10-27T16:52:49.743Z,96.30
2017-10-27T16:55:59.857Z,96.20
2017-10-27T16:59:10.034Z,96.30
2017-10-27T17:02:20.387Z,96.30
2017-10-27T17:05:30.530Z,96.40
2017-10-27T17:08:41.604Z,96.30
2017-10-27T17:11:52.017Z,96.30
2017-10-27T17:15:02.325Z,96.30
2017-10-27T17:18:12.178Z,96.20
2017-10-27T17:21:22.800Z,96.30
2017-10-27T17:24:33.401Z,96.20
2017-10-27T17:27:43.418Z,96.20
2017-10-27T17:30:53.936Z,96.20
2017-10-27T17:34:04.429Z,95.90
2017-10-27T17:37:15.007Z,96.10
2017-10-27T17:40:24.832Z,95.90
2017-10-27T17:43:35.310Z,95.90
2017-10-27T17:46:45.996Z,96.10
2017-10-27T17:49:57.613Z,96.00
2017-10-27T17:53:08.217Z,96.00
2017-10-27T17:56:18.980Z,96.00
2017-10-27T17:59:29.887Z,96.00
2017-10-27T18:02:40.742Z,96.10
2017-10-27T18:05:51.618Z,96.00
2017-10-27T18:09:03.607Z,96.10
2017-10-27T18:12:14.546Z,96.10
2017-10-27T18:15:25.779Z,96.30
2017-10-27T18:18:38.502Z,96.50
2017-10-27T18:21:48.715Z,96.20
2017-10-27T18:25:00.743Z,96.20
2017-10-27T18:28:12.034Z,96.00
2017-10-27T18:31:24.137Z,96.10
2017-10-27T18:34:36.338Z,96.30
2017-10-27T18:37:48.067Z,96.30
2017-10-27T18:40:58.647Z,96.30
2017-10-27T18:44:10.837Z,96.30
2017-10-27T18:47:22.435Z,96.30
2017-10-27T18:50:33.187Z,96.20
2017-10-27T18:53:44.259Z,96.40
2017-10-27T18:56:54.695Z,96.50
2017-10-27T19:00:05.674Z,96.50
2017-10-27T19:03:16.758Z,96.50
2017-10-27T19:06:27.907Z,96.50
2017-10-27T19:09:39.008Z,96.60
2017-10-27T19:12:49.858Z,96.50
2017-10-27T19:16:01.441Z,96.60
2017-10-27T19:19:13.047Z,96.70
2017-10-27T19:22:23.646Z,96.80
2017-10-27T19:25:34.295Z,96.70
2017-10-27T19:28:44.806Z,96.80
2017-10-27T19:31:55.059Z,96.60
2017-10-27T19:35:06.756Z,96.50
2017-10-27T19:38:17.731Z,96.50
2017-10-27T19:41:28.974Z,96.60
2017-10-27T19:44:39.637Z,96.60
2017-10-27T19:47:51.073Z,96.50
2017-10-27T19:51:02.597Z,96.60
2017-10-27T19:54:13.894Z,96.40
2017-10-27T19:57:24.755Z,96.40
2017-10-27T20:00:34.990Z,96.50
2017-10-27T20:03:45.009Z,96.60
2017-10-27T20:06:56.000Z,96.40
2017-10-27T20:10:06.686Z,96.40
2017-10-27T20:13:16.971Z,96.30
2017-10-27T20:16:27.174Z,96.50
2017-10-27T20:19:37.386Z,96.60
2017-10-27T20:22:49.252Z,96.60
2017-10-27T20:25:59.445Z,96.60
2017-10-27T20:29:09.810Z,96.40
2017-10-27T20:32:20.379Z,96.40
2017-10-27T20:35:31.449Z,96.30
2017-10-27T20:38:42.783Z,96.30
2017-10-27T20:41:53.860Z,96.30
2017-10-27T20:45:05.126Z,95.70
2017-10-27T20:48:15.939Z,95.70
2017-10-27T20:51:26.748Z,95.90
2017-10-27T20:54:38.116Z,95.80
2017-10-27T20:57:49.083Z,95.90
2017-10-27T21:00:59.690Z,95.90
2017-10-27T21:04:10.740Z,95.80
2017-10-27T21:07:20.654Z,95.70
2017-10-27T21:10:32.631Z,95.50
2017-10-27T21:13:43.925Z,95.70
2017-10-27T21:16:56.109Z,95.60
2017-10-27T21:20:06.468Z,95.80
2017-10-27T21:23:17.638Z,95.90
2017-10-27T21:26:28.096Z,95.80
2017-10-27T21:29:39.193Z,96.10
2017-10-27T21:32:50.620Z,96.10
2017-10-27T21:36:01.233Z,96.20
2017-10-27T21:39:12.671Z,96.20
2017-10-27T21:42:23.078Z,96.30
2017-10-27T21:45:33.408Z,96.30
2017-10-27T21:48:44.185Z,96.30
2017-10-27T21:51:54.697Z,96.30
2017-10-27T21:55:06.406Z,96.40
2017-10-27T21:58:17.549Z,96.80
2017-10-27T22:01:28.633Z,96.30
2017-10-27T22:04:39.646Z,96.40
2017-10-27T22:07:50.689Z,96.40
2017-10-27T22:11:01.742Z,96.70
2017-10-27T22:14:12.830Z,96.50
2017-10-27T22:17:24.331Z,96.60
2017-10-27T22:20:34.187Z,96.60
2017-10-27T22:23:46.108Z,96.70
2017-10-27T22:26:56.885Z,96.60
2017-10-27T22:30:07.977Z,96.70
2017-10-27T22:33:18.701Z,96.70
2017-10-27T22:36:29.892Z,96.80
2017-10-27T22:39:40.782Z,96.80
2017-10-27T22:42:51.316Z,96.90
2017-10-27T22:46:03.333Z,96.80
2017-10-27T22:49:14.428Z,96.80
2017-10-27T22:52:25.716Z,96.80
2017-10-27T22:55:36.220Z,96.80
2017-10-27T22:58:46.932Z,96.90
2017-10-27T23:01:57.544Z,96.60
2017-10-27T23:05:08.470Z,96.70
2017-10-27T23:08:21.384Z,96.70
2017-10-27T23:11:33.318Z,96.60
2017-10-27T23:14:45.203Z,96.60
2017-10-27T23:17:56.287Z,96.70
2017-10-27T23:21:07.510Z,96.70
2017-10-27T23:24:17.960Z,97.00
2017-10-27T23:27:28.189Z,97.40
2017-10-27T23:30:38.690Z,97.20
2017-10-27T23:33:49.485Z,97.20
2017-10-27T23:37:00.291Z,97.40
2017-10-27T23:40:11.122Z,97.60
2017-10-27T23:43:22.183Z,97.90
2017-10-27T23:46:33.011Z,98.40
2017-10-27T23:49:43.991Z,98.60
2017-10-27T23:52:55.298Z,98.70
2017-10-27T23:56:05.643Z,98.80
2017-10-27T23:59:16.544Z,99.00
